Time;durP1;ratioP1;P1;durP2;ratioP2;P2;SDS_P1;SDS_P2;PMS_P1;PMS_P2;Temp;Humidity;BMP_temperature;BMP_pressure;BME280_temperature;BME280_humidity;BME280_pressure;Samples;Min_cycle;Max_cycle;Signal;HPM_P1;HPM_P2
2022/07/14 00:00:55;;;;;;;14.05;8.98;;;;;;;17.55;69.73;99305.81;5072281;28;20445;-78
2022/07/14 00:03:22;;;;;;;14.27;9.88;;;;;;;17.57;70.08;99298.72;5072381;28;20502;-80
2022/07/14 00:05:49;;;;;;;11.00;8.13;;;;;;;17.55;69.23;99289.97;5075882;28;20048;-79
2022/07/14 00:08:19;;;;;;;16.48;10.95;;;;;;;17.52;70.21;99290.94;5077112;28;20143;-80
2022/07/14 00:10:46;;;;;;;11.63;8.50;;;;;;;17.44;70.23;99298.25;5076606;28;20056;-79
2022/07/14 00:13:13;;;;;;;14.40;10.50;;;;;;;17.37;70.66;99292.31;5076654;28;20139;-81
2022/07/14 00:15:40;;;;;;;13.55;10.50;;;;;;;17.35;71.01;99299.44;5076627;28;20067;-80
2022/07/14 00:18:07;;;;;;;22.40;11.15;;;;;;;17.33;71.35;99306.53;5076309;28;20058;-79
2022/07/14 00:20:34;;;;;;;15.02;11.00;;;;;;;17.28;71.49;99297.91;5075099;28;20091;-79
2022/07/14 00:23:02;;;;;;;16.95;10.32;;;;;;;17.11;71.69;99277.34;5076221;28;20048;-78
2022/07/14 00:25:29;;;;;;;12.95;10.43;;;;;;;17.21;71.76;99291.13;5075776;28;20080;-79
2022/07/14 00:27:56;;;;;;;13.20;10.02;;;;;;;17.20;71.91;99290.25;5074791;28;20131;-78
2022/07/14 00:30:23;;;;;;;12.38;7.15;;;;;;;17.22;71.18;99299.91;5075750;28;20516;-79
2022/07/14 00:32:50;;;;;;;11.20;7.88;;;;;;;17.18;70.56;99294.72;5076036;28;20102;-79
2022/07/14 00:35:18;;;;;;;11.85;7.35;;;;;;;17.30;70.62;99305.81;5076845;28;20053;-79
2022/07/14 00:37:45;;;;;;;16.05;9.32;;;;;;;17.28;70.83;99286.50;5077517;28;20086;-78
2022/07/14 00:40:13;;;;;;;12.00;8.25;;;;;;;17.37;70.46;99294.13;5077971;28;20048;-77
2022/07/14 00:42:44;;;;;;;15.18;8.13;;;;;;;17.42;69.95;99307.16;5077135;28;20048;-77
2022/07/14 00:45:14;;;;;;;8.57;6.18;;;;;;;17.45;68.27;99301.78;5075845;28;20061;-78
2022/07/14 00:47:44;;;;;;;9.05;6.93;;;;;;;17.44;68.34;99281.56;5074337;28;20125;-78
2022/07/14 00:50:13;;;;;;;11.43;7.13;;;;;;;17.50;67.96;99307.75;5075889;28;20058;-78
2022/07/14 00:52:42;;;;;;;9.90;7.05;;;;;;;17.53;67.99;99297.09;5062851;28;20615;-80
2022/07/14 00:55:12;;;;;;;10.50;7.10;;;;;;;17.44;67.84;99271.00;5063558;28;20125;-79
2022/07/14 00:57:40;;;;;;;10.80;7.72;;;;;;;17.61;67.83;99290.63;5058417;28;20468;-81
2022/07/14 01:00:10;;;;;;;9.15;7.55;;;;;;;17.64;67.32;99280.88;5055486;28;20095;-79
2022/07/14 01:02:37;;;;;;;10.82;7.00;;;;;;;17.56;66.90;99262.66;5066407;28;20060;-79
2022/07/14 01:05:06;;;;;;;12.18;7.22;;;;;;;17.65;66.44;99286.09;5075284;28;20057;-78
2022/07/14 01:07:33;;;;;;;14.32;7.70;;;;;;;17.67;66.46;99286.91;5074297;28;20056;-80
2022/07/14 01:10:00;;;;;;;13.40;7.57;;;;;;;17.65;66.44;99275.53;5075133;28;20055;-78
2022/07/14 01:12:28;;;;;;;12.20;7.38;;;;;;;17.65;66.17;99274.69;5075437;28;20501;-78
2022/07/14 01:14:55;;;;;;;12.23;7.13;;;;;;;17.72;66.19;99261.19;5073933;28;20137;-80
2022/07/14 01:17:22;;;;;;;14.98;8.98;;;;;;;17.79;67.16;99267.16;5073161;28;20048;-78
2022/07/14 01:19:49;;;;;;;15.65;9.13;;;;;;;17.73;67.62;99260.28;5074959;28;20052;-78
2022/07/14 01:22:17;;;;;;;11.55;8.05;;;;;;;17.77;67.13;99272.47;5074251;28;20056;-78
2022/07/14 01:24:45;;;;;;;14.13;7.63;;;;;;;17.78;67.19;99273.34;5075067;28;20048;-78
2022/07/14 01:27:11;;;;;;;9.73;7.80;;;;;;;17.74;67.70;99267.28;5075238;28;20064;-78
2022/07/14 01:29:39;;;;;;;13.32;8.18;;;;;;;17.67;67.69;99254.38;5074924;28;20056;-79
2022/07/14 01:32:07;;;;;;;9.73;7.38;;;;;;;17.59;67.78;99265.19;5057238;28;20049;-78
2022/07/14 01:34:34;;;;;;;10.77;7.15;;;;;;;17.53;67.55;99257.47;5073591;28;20053;-78
2022/07/14 01:37:01;;;;;;;9.82;7.43;;;;;;;17.53;67.34;99244.28;5074643;28;20520;-78
2022/07/14 01:39:28;;;;;;;13.38;7.20;;;;;;;17.59;67.19;99263.44;5074688;28;20064;-77
2022/07/14 01:41:55;;;;;;;8.90;6.78;;;;;;;17.57;67.02;99273.19;5074972;28;20040;-78
2022/07/14 01:44:23;;;;;;;10.95;6.97;;;;;;;17.60;66.74;99273.06;5074448;28;20060;-77
2022/07/14 01:46:50;;;;;;;11.00;6.72;;;;;;;17.76;65.84;99270.75;5056266;28;20509;-78
2022/07/14 01:49:19;;;;;;;11.68;7.55;;;;;;;17.82;65.62;99259.13;5073427;28;20497;-79
2022/07/14 01:51:47;;;;;;;10.10;7.07;;;;;;;17.89;65.37;99265.91;5073361;28;20139;-78
2022/07/14 01:54:15;;;;;;;13.32;6.90;;;;;;;17.91;64.58;99244.72;5073338;28;20155;-78
2022/07/14 01:56:43;;;;;;;12.07;6.82;;;;;;;18.18;63.91;99264.88;5073084;28;20506;-79
2022/07/14 01:59:13;;;;;;;12.25;7.07;;;;;;;18.27;63.47;99262.81;5073149;28;20425;-79
2022/07/14 02:01:40;;;;;;;17.88;7.45;;;;;;;18.33;63.14;99252.00;5073082;28;20402;-79
2022/07/14 02:04:17;;;;;;;10.43;6.80;;;;;;;18.45;63.19;99251.50;5072944;28;20056;-79
2022/07/14 02:06:55;;;;;;;13.95;7.05;;;;;;;18.50;63.71;99246.91;5073263;28;20056;-78
2022/07/14 02:12:34;;;;;;;11.10;7.25;;;;;;;18.68;63.79;99247.13;5073116;28;20048;-81
2022/07/14 02:15:01;;;;;;;8.75;6.63;;;;;;;18.71;63.47;99239.03;5072765;28;20059;-78
2022/07/14 02:17:31;;;;;;;11.73;6.72;;;;;;;18.88;63.01;99255.13;5072669;28;20058;-78
2022/07/14 02:19:58;;;;;;;12.57;6.68;;;;;;;19.10;62.46;99249.84;5073829;28;20048;-78
2022/07/14 02:22:25;;;;;;;8.98;6.47;;;;;;;19.21;61.82;99241.47;5072722;28;20559;-78
2022/07/14 02:24:52;;;;;;;10.73;6.82;;;;;;;19.32;61.10;99249.81;5073867;28;20052;-77
2022/07/14 02:27:20;;;;;;;12.20;6.00;;;;;;;19.22;60.71;99232.59;5072362;28;20061;-77
2022/07/14 02:29:47;;;;;;;10.27;6.28;;;;;;;19.20;60.75;99235.28;5074271;28;20048;-79
2022/07/14 02:32:13;;;;;;;11.32;6.10;;;;;;;19.16;60.33;99233.69;5072822;28;20105;-78
2022/07/14 02:34:40;;;;;;;11.35;6.00;;;;;;;19.38;59.58;99246.91;5073811;28;20049;-78
2022/07/14 02:37:10;;;;;;;7.93;5.65;;;;;;;19.69;58.14;99245.56;5072290;28;20049;-78
2022/07/14 02:39:38;;;;;;;13.18;6.18;;;;;;;20.39;56.66;99251.28;5073438;28;20521;-79
2022/07/14 02:42:06;;;;;;;10.13;5.57;;;;;;;22.23;52.37;99257.22;5073474;28;20082;-77
2022/07/14 02:44:34;;;;;;;6.28;5.28;;;;;;;23.97;47.74;99272.09;5047196;28;20053;-78
2022/07/14 02:47:01;;;;;;;9.85;5.35;;;;;;;23.92;47.21;99267.06;5032319;28;20057;-78
2022/07/14 02:49:28;;;;;;;12.02;5.70;;;;;;;23.67;48.41;99246.31;5065743;28;20056;-77
2022/07/14 02:51:56;;;;;;;8.50;5.93;;;;;;;24.48;46.38;99252.94;5032294;28;20045;-79
2022/07/14 02:54:23;;;;;;;9.25;5.35;;;;;;;25.43;44.39;99248.56;5033380;28;20564;-79
2022/07/14 02:56:50;;;;;;;11.20;5.30;;;;;;;26.52;41.20;99200.78;5033047;28;20469;-79
2022/07/14 02:59:19;;;;;;;12.32;5.60;;;;;;;27.37;39.04;99225.72;5032067;28;20066;-78
2022/07/14 03:01:49;;;;;;;10.15;5.43;;;;;;;28.16;38.03;99238.47;5065326;28;20196;-79
2022/07/14 03:04:21;;;;;;;10.77;5.53;;;;;;;30.04;34.60;99230.97;5032358;28;20576;-78
2022/07/14 03:06:51;;;;;;;;;;;;;;;31.25;35.65;99246.22;5065764;28;20534;-78
2022/07/14 03:09:21;;;;;;;6.63;5.05;;;;;;;31.51;32.93;99255.44;5065353;28;19975;-79
2022/07/14 03:11:49;;;;;;;9.93;4.77;;;;;;;30.78;33.60;99253.09;5064985;28;20404;-79
2022/07/14 03:14:17;;;;;;;11.70;5.00;;;;;;;29.73;35.01;99249.78;5032021;28;20503;-79
2022/07/14 03:16:44;;;;;;;10.98;5.80;;;;;;;29.04;36.10;99250.16;5065296;28;20053;-79
2022/07/14 03:19:30;;;;;;;10.20;6.28;;;;;;;27.61;38.63;99264.19;5047699;28;20063;-79
2022/07/14 03:21:59;;;;;;;10.73;5.82;;;;;;;27.30;38.98;99235.22;5051814;28;20052;-77
2022/07/14 03:24:26;;;;;;;11.05;5.95;;;;;;;28.08;37.70;99247.09;5051857;28;20143;-77
2022/07/14 03:26:54;;;;;;;8.07;5.68;;;;;;;28.49;36.52;99251.03;5051595;28;20107;-80
2022/07/14 03:29:22;;;;;;;10.23;5.65;;;;;;;29.78;34.40;99247.53;5051654;28;20048;-78
2022/07/14 03:31:50;;;;;;;9.73;5.35;;;;;;;29.25;35.02;99251.09;5085278;28;20125;-79
2022/07/14 03:34:17;;;;;;;8.93;5.32;;;;;;;28.82;35.90;99235.81;5051320;28;20422;-80
2022/07/14 03:36:46;;;;;;;9.95;5.70;;;;;;;28.72;35.50;99241.09;5035023;28;20123;-79
2022/07/14 03:39:23;;;;;;;11.85;5.57;;;;;;;27.94;36.45;99237.47;5084575;28;20136;-80
2022/07/14 03:41:50;;;;;;;8.52;5.10;;;;;;;27.21;37.78;99233.22;5091026;28;20048;-80
2022/07/14 03:44:18;;;;;;;6.85;4.90;;;;;;;26.36;38.88;99233.16;5034510;28;20491;-78
2022/07/14 03:46:45;;;;;;;8.93;4.65;;;;;;;25.55;39.77;99237.00;5035863;28;20052;-80
2022/07/14 03:49:17;;;;;;;7.35;4.57;;;;;;;24.88;41.56;99231.69;5059955;28;20049;-76
2022/07/14 03:51:45;;;;;;;6.45;4.63;;;;;;;24.27;42.82;99228.47;5085811;28;20053;-78
2022/07/14 03:54:17;;;;;;;8.45;4.75;;;;;;;23.71;44.56;99228.31;5034026;28;20195;-78
2022/07/14 03:56:45;;;;;;;6.90;4.72;;;;;;;23.28;45.77;99222.91;5031341;28;20518;-78
2022/07/14 03:59:14;;;;;;;10.88;5.22;;;;;;;22.87;46.69;99212.84;5030998;28;20146;-78
2022/07/14 04:01:41;;;;;;;9.90;4.97;;;;;;;22.97;47.03;99216.66;5064683;28;20057;-78
2022/07/14 04:04:09;;;;;;;11.32;5.15;;;;;;;22.99;46.67;99189.94;5047452;28;20476;-80
2022/07/14 04:06:36;;;;;;;8.18;4.78;;;;;;;23.02;46.46;99205.81;5051147;28;20052;-79
2022/07/14 04:09:04;;;;;;;10.55;4.80;;;;;;;23.08;45.63;99190.31;5051561;28;20084;-79
2022/07/14 04:11:34;;;;;;;10.00;5.40;;;;;;;24.44;43.15;99190.03;5084905;28;20053;-79
2022/07/14 04:14:03;;;;;;;8.80;5.40;;;;;;;26.00;40.07;99192.00;5043168;28;20535;-79
2022/07/14 04:16:30;;;;;;;9.77;5.72;;;;;;;28.95;35.66;99187.28;5050986;28;20147;-79
2022/07/14 04:18:58;;;;;;;12.43;5.40;;;;;;;30.04;33.03;99175.28;5050570;28;20084;-80
2022/07/14 04:21:25;;;;;;;7.75;5.18;;;;;;;28.63;35.45;99184.56;5044917;28;21482;-82
2022/07/14 04:23:52;;;;;;;12.88;5.70;;;;;;;27.34;38.14;99190.22;5053381;28;20048;-80
2022/07/14 04:26:19;;;;;;;14.45;5.28;;;;;;;26.55;40.08;99184.50;5049978;28;20060;-79
2022/07/14 04:28:46;;;;;;;13.13;5.78;;;;;;;25.93;41.03;99158.63;5051059;28;20049;-80
2022/07/14 04:31:13;;;;;;;11.13;5.15;;;;;;;26.04;41.14;99161.38;5050595;28;20518;-80
2022/07/14 04:33:43;;;;;;;10.13;5.07;;;;;;;26.13;41.09;99162.53;5050743;28;20049;-79
2022/07/14 04:36:12;;;;;;;9.25;4.70;;;;;;;26.53;39.80;99173.88;5050398;28;20064;-80
2022/07/14 04:38:39;;;;;;;13.82;5.47;;;;;;;27.02;39.44;99169.41;5044575;28;20518;-78
2022/07/14 04:41:07;;;;;;;13.02;5.25;;;;;;;27.24;38.70;99174.00;5047348;28;20052;-78
2022/07/14 04:43:37;;;;;;;7.18;4.65;;;;;;;27.39;38.47;99168.47;5061911;28;20422;-79
2022/07/14 04:46:08;;;;;;;10.02;4.78;;;;;;;27.47;37.97;99166.00;5053807;28;20057;-80
2022/07/14 04:54:17;;;;;;;9.13;4.55;;;;;;;26.01;40.86;99137.53;5055034;28;20530;-82
2022/07/14 04:56:50;;;;;;;9.30;4.82;;;;;;;25.79;41.86;99132.84;5074334;28;20152;-80
2022/07/14 04:59:35;;;;;;;7.20;5.15;;;;;;;25.49;42.54;99138.50;5064311;28;20068;-81
2022/07/14 05:02:04;;;;;;;7.47;4.90;;;;;;;25.40;42.70;99134.66;5060256;28;20068;-80
2022/07/14 05:04:31;;;;;;;9.60;4.63;;;;;;;25.45;43.05;99159.28;5043916;28;20048;-80
2022/07/14 05:07:01;;;;;;;10.00;4.90;;;;;;;25.69;43.49;99147.84;5055991;28;20288;-80
2022/07/14 05:09:34;;;;;;;6.30;3.92;;;;;;;25.96;41.16;99150.38;5034222;28;20057;-80
2022/07/14 05:12:04;;;;;;;10.35;4.97;;;;;;;26.01;42.67;99144.72;5067418;28;20081;-80
2022/07/14 05:14:32;;;;;;;6.68;4.88;;;;;;;25.82;42.87;99142.47;5034168;28;20064;-83
2022/07/14 05:17:01;;;;;;;9.93;4.15;;;;;;;25.54;41.17;99125.69;5034045;28;20049;-79
2022/07/14 05:19:50;;;;;;;11.93;4.55;;;;;;;25.43;42.40;99137.13;5066807;28;20442;-82
2022/07/14 05:22:18;;;;;;;9.65;4.20;;;;;;;25.45;41.39;99137.03;5066308;28;20107;-79
2022/07/14 05:24:45;;;;;;;9.32;3.83;;;;;;;25.46;40.26;99131.56;5017136;28;20068;-79
2022/07/14 05:27:13;;;;;;;7.25;4.28;;;;;;;25.50;41.81;99126.88;5066404;28;20455;-78
2022/07/14 05:29:40;;;;;;;7.85;3.67;;;;;;;25.86;41.22;99128.75;5067111;28;20064;-81
2022/07/14 05:32:08;;;;;;;8.85;3.95;;;;;;;26.50;40.18;99114.34;5033643;28;20419;-82
2022/07/14 05:34:44;;;;;;;7.20;3.90;;;;;;;26.99;39.47;99118.72;5017474;28;20148;-80
2022/07/14 05:37:17;;;;;;;5.55;3.10;;;;;;;26.88;37.66;99126.72;5066988;28;20127;-82
2022/07/14 05:39:45;;;;;;;5.53;3.88;;;;;;;26.65;39.40;99121.28;5049575;28;20084;-80
2022/07/14 05:42:13;;;;;;;9.30;3.95;;;;;;;26.60;39.90;99115.41;5033213;28;20057;-80
2022/07/14 05:44:41;;;;;;;5.47;3.30;;;;;;;26.34;39.55;99109.28;5066216;28;20061;-80
2022/07/14 05:47:08;;;;;;;5.80;3.83;;;;;;;26.02;40.82;99104.47;5066665;28;20049;-81
2022/07/14 05:49:35;;;;;;;7.88;4.03;;;;;;;25.85;41.21;99110.13;5033292;28;20099;-81
2022/07/14 05:52:05;;;;;;;6.28;3.63;;;;;;;25.74;41.98;99106.41;5033232;28;20059;-82
2022/07/14 05:54:33;;;;;;;4.85;3.50;;;;;;;25.47;41.99;99097.69;5033434;28;20148;-81
2022/07/14 05:57:03;;;;;;;4.40;3.20;;;;;;;25.24;41.84;99100.13;5033188;28;20609;-80
2022/07/14 05:59:30;;;;;;;7.78;3.45;;;;;;;25.05;42.48;99105.84;5033556;28;20049;-81
2022/07/14 06:02:17;;;;;;;4.22;3.35;;;;;;;25.00;41.89;99105.31;5032622;28;20143;-81
2022/07/14 06:04:45;;;;;;;3.80;3.45;;;;;;;24.86;42.37;99097.38;5033109;28;20076;-80
2022/07/14 06:07:12;;;;;;;9.18;3.63;;;;;;;24.99;42.51;99092.06;5032986;28;20056;-81
2022/07/14 06:09:44;;;;;;;6.22;3.33;;;;;;;25.29;42.43;99106.00;5033183;28;20077;-80
2022/07/14 06:12:15;;;;;;;4.07;3.38;;;;;;;25.28;41.68;99108.81;5033011;28;20053;-81
2022/07/14 06:14:45;;;;;;;7.72;3.40;;;;;;;25.47;41.42;99070.97;5033926;28;20469;-81
2022/07/14 06:17:12;;;;;;;4.75;3.30;;;;;;;25.59;41.21;99102.16;5032662;28;20178;-81
2022/07/14 06:19:40;;;;;;;6.32;3.40;;;;;;;25.79;40.30;99095.41;5032846;28;20073;-81
2022/07/14 06:22:07;;;;;;;4.10;3.65;;;;;;;25.82;40.04;99084.47;5033963;28;20057;-81
2022/07/14 06:24:38;;;;;;;5.80;3.35;;;;;;;26.19;40.29;99089.84;5066431;28;20060;-81
2022/07/14 06:27:15;;;;;;;6.18;3.25;;;;;;;26.73;38.70;99100.09;5032721;28;20137;-80
2022/07/14 06:29:43;;;;;;;5.90;3.50;;;;;;;27.20;38.14;99092.09;5032840;28;20049;-81
2022/07/14 06:32:10;;;;;;;3.97;3.63;;;;;;;27.61;37.33;99079.13;5065894;28;20331;-79
2022/07/14 06:34:38;;;;;;;5.13;3.70;;;;;;;27.86;36.15;99078.03;5049581;28;20511;-81
2022/07/14 06:37:18;;;;;;;5.03;4.03;;;;;;;27.76;36.28;99093.97;5065766;28;20087;-81
2022/07/14 06:39:46;;;;;;;6.00;4.15;;;;;;;27.43;36.76;99084.13;5065414;28;20447;-81
2022/07/14 06:42:14;;;;;;;6.03;4.05;;;;;;;27.30;37.33;99085.06;5032485;28;20045;-82
2022/07/14 06:44:53;;;;;;;10.33;3.77;;;;;;;26.85;38.48;99076.06;5065697;28;20061;-79
2022/07/14 06:47:20;;;;;;;6.20;4.35;;;;;;;26.61;38.56;99063.56;5033410;28;20050;-80
2022/07/14 06:49:46;;;;;;;8.35;4.80;;;;;;;26.65;38.44;99067.72;5032557;28;20057;-81
2022/07/14 06:52:14;;;;;;;7.07;5.40;;;;;;;26.62;38.50;99062.56;5049176;28;20053;-81
2022/07/14 06:54:41;;;;;;;7.35;4.63;;;;;;;26.65;38.59;99062.38;5015529;28;20045;-80
2022/07/14 06:57:08;;;;;;;11.75;5.47;;;;;;;26.52;39.02;99049.00;5033175;28;20053;-81
2022/07/14 06:59:35;;;;;;;8.32;5.00;;;;;;;26.62;38.96;99065.25;5033119;28;20046;-81
2022/07/14 07:02:02;;;;;;;8.68;5.07;;;;;;;26.78;39.14;99048.88;5065159;28;20055;-81
2022/07/14 07:04:29;;;;;;;4.68;4.20;;;;;;;27.07;38.46;99045.78;5033288;28;20046;-80
2022/07/14 07:06:56;;;;;;;5.93;4.85;;;;;;;27.02;38.73;99045.25;5033537;28;20049;-81
2022/07/14 07:09:23;;;;;;;9.82;4.90;;;;;;;26.74;39.15;99053.63;5033055;28;20060;-81
2022/07/14 07:11:51;;;;;;;8.45;4.93;;;;;;;26.58;39.31;99047.72;5033131;28;20057;-80
2022/07/14 07:14:18;;;;;;;8.45;4.97;;;;;;;26.66;39.57;99055.19;5032396;28;20053;-80
2022/07/14 07:16:46;;;;;;;10.40;5.50;;;;;;;26.85;39.49;99050.13;5033206;28;20076;-79
2022/07/14 07:19:14;;;;;;;9.98;5.10;;;;;;;27.26;38.91;99058.63;5033127;28;20057;-81
2022/07/14 07:21:42;;;;;;;8.57;4.97;;;;;;;27.67;38.27;99052.66;5033075;28;20057;-80
2022/07/14 07:24:09;;;;;;;6.55;4.63;;;;;;;28.02;37.96;99048.13;5032901;28;20045;-80
2022/07/14 07:26:40;;;;;;;6.38;4.63;;;;;;;28.02;37.01;99056.16;5032989;28;20057;-82
2022/07/14 07:29:08;;;;;;;6.90;3.92;;;;;;;27.88;36.99;99033.16;5032904;28;20057;-80
2022/07/14 07:31:35;;;;;;;8.15;4.50;;;;;;;27.72;37.67;99022.75;5032741;28;20053;-80
2022/07/14 07:34:02;;;;;;;10.10;4.53;;;;;;;27.49;37.98;99046.94;5032887;28;20057;-80
2022/07/14 07:36:30;;;;;;;5.70;4.40;;;;;;;27.32;38.44;99053.63;5032589;28;20045;-81
2022/07/14 07:38:57;;;;;;;6.43;4.13;;;;;;;27.13;39.03;99054.19;5032906;28;20050;-81
2022/07/14 07:41:24;;;;;;;9.57;4.45;;;;;;;27.01;39.58;99043.56;5032482;28;20126;-81
2022/07/14 07:43:51;;;;;;;7.85;4.20;;;;;;;27.22;39.46;99058.00;5032483;28;20144;-80
2022/07/14 07:46:18;;;;;;;11.82;4.43;;;;;;;27.24;39.31;99039.97;5032844;28;20061;-82
2022/07/14 07:48:45;;;;;;;6.78;4.65;;;;;;;27.23;39.75;99048.97;5032948;28;20050;-81
2022/07/14 07:51:13;;;;;;;10.73;5.70;;;;;;;27.38;39.65;99044.22;5032529;28;20057;-81
2022/07/14 07:53:43;;;;;;;8.55;4.25;;;;;;;27.48;39.32;99037.16;5064927;28;20195;-81
2022/07/14 07:56:10;;;;;;;16.05;4.50;;;;;;;27.66;39.23;99045.59;5032162;28;20474;-81
2022/07/14 07:58:37;;;;;;;8.23;4.60;;;;;;;27.83;38.50;99021.91;5032523;28;20145;-79
2022/07/14 08:01:04;;;;;;;6.18;4.28;;;;;;;27.92;38.49;99040.81;5064103;28;20056;-80
2022/07/14 08:03:32;;;;;;;9.52;4.80;;;;;;;27.84;38.75;99028.97;5032066;28;20056;-82
2022/07/14 08:06:05;;;;;;;6.60;4.53;;;;;;;27.60;39.30;99024.63;5032468;28;20041;-81
2022/07/14 08:08:52;;;;;;;8.30;5.07;;;;;;;27.46;39.59;99019.50;5032665;28;20049;-80
2022/07/14 08:11:19;;;;;;;18.50;5.05;;;;;;;27.51;39.81;99022.66;5032058;28;20107;-80
2022/07/14 08:13:46;;;;;;;14.20;4.95;;;;;;;27.58;39.90;99038.16;5032410;28;20053;-80
2022/07/14 08:16:13;;;;;;;14.32;4.85;;;;;;;27.33;40.52;99025.84;5032246;28;20143;-80
2022/07/14 08:18:40;;;;;;;7.03;4.47;;;;;;;27.44;40.45;99030.34;5064498;28;20149;-81
2022/07/14 08:21:07;;;;;;;9.55;5.50;;;;;;;27.48;40.64;99013.03;5032351;28;20081;-81
2022/07/14 08:23:35;;;;;;;15.43;5.45;;;;;;;27.82;39.84;99004.94;5032606;28;20522;-80
2022/07/14 08:26:02;;;;;;;14.70;4.80;;;;;;;28.17;39.24;99004.75;5034521;28;20049;-81
2022/07/14 08:28:29;;;;;;;7.25;4.70;;;;;;;28.38;38.80;99012.84;5035947;28;20057;-79
2022/07/14 08:30:56;;;;;;;7.80;4.22;;;;;;;28.44;37.30;99014.19;5036170;28;20056;-80
2022/07/14 08:33:24;;;;;;;8.40;6.15;;;;;;;28.68;36.75;98997.00;5035967;28;20057;-80
2022/07/14 08:35:51;;;;;;;5.93;4.20;;;;;;;28.79;37.31;98997.75;5036099;28;20176;-80
2022/07/14 08:38:18;;;;;;;9.00;6.13;;;;;;;29.18;36.72;98997.16;5035636;28;20060;-80
2022/07/14 08:40:45;;;;;;;10.05;4.57;;;;;;;29.33;36.59;98985.03;5040183;28;20049;-79
2022/07/14 08:43:14;;;;;;;8.35;4.60;;;;;;;29.32;36.50;98985.16;5072826;28;20060;-81
2022/07/14 08:45:42;;;;;;;;;;;;;;;29.39;37.09;98981.81;5065510;28;20104;-82
2022/07/14 08:48:09;;;;;;;8.93;4.45;;;;;;;29.78;35.85;98971.19;5057852;28;19925;-80
2022/07/14 08:50:37;;;;;;;6.32;4.03;;;;;;;30.15;35.49;98983.13;5055760;28;20057;-80
2022/07/14 08:53:04;;;;;;;5.55;4.13;;;;;;;30.15;34.47;98972.34;5055895;28;20053;-81
2022/07/14 08:55:34;;;;;;;6.97;3.55;;;;;;;29.81;35.11;98967.34;5054348;28;20076;-80
2022/07/14 08:58:01;;;;;;;10.52;3.78;;;;;;;29.52;34.74;98973.50;5054099;28;20509;-80
2022/07/14 09:00:28;;;;;;;9.20;3.80;;;;;;;29.33;34.32;98946.56;5054978;28;20453;-81
2022/07/14 09:03:00;;;;;;;5.18;3.65;;;;;;;28.95;34.42;98958.81;5055599;28;20095;-80
2022/07/14 09:05:47;;;;;;;6.07;3.50;;;;;;;28.91;34.09;98950.19;5056116;28;20056;-82
2022/07/14 09:08:16;;;;;;;3.35;3.10;;;;;;;28.88;32.97;98953.13;5055225;28;20053;-79
2022/07/14 09:10:45;;;;;;;5.20;3.17;;;;;;;28.71;33.08;98951.88;5055093;28;20418;-80
2022/07/14 09:13:31;;;;;;;4.47;3.20;;;;;;;28.88;32.79;98941.53;5062548;28;20053;-80
2022/07/14 09:16:15;;;;;;;7.80;3.60;;;;;;;29.12;33.17;98941.22;5044995;28;20045;-79
2022/07/14 09:18:42;;;;;;;12.40;3.50;;;;;;;29.40;33.06;98931.56;5046001;28;20175;-80
2022/07/14 09:21:20;;;;;;;8.18;3.58;;;;;;;29.45;32.53;98937.41;5045274;28;20460;-81
2022/07/14 09:23:47;;;;;;;4.22;3.30;;;;;;;29.30;32.67;98912.72;5045805;28;20072;-80
2022/07/14 09:26:17;;;;;;;6.20;3.58;;;;;;;29.61;32.65;98924.25;5074552;28;20568;-79
2022/07/14 09:28:46;;;;;;;3.97;3.35;;;;;;;29.44;33.22;98911.47;5043957;28;20427;-81
2022/07/14 09:31:40;;;;;;;5.72;3.75;;;;;;;29.45;33.11;98910.50;5045812;28;20461;-80
2022/07/14 09:34:22;;;;;;;5.97;3.55;;;;;;;29.28;32.85;98900.41;5077412;28;20518;-80
2022/07/14 09:36:49;;;;;;;3.40;3.10;;;;;;;28.86;33.19;98879.84;5044545;28;20040;-81
2022/07/14 09:39:16;;;;;;;4.15;3.60;;;;;;;28.73;33.57;98906.09;5043947;28;20053;-82
2022/07/14 09:41:53;;;;;;;9.27;3.97;;;;;;;28.45;34.28;98902.22;5043826;28;20075;-80
2022/07/14 09:44:21;;;;;;;5.88;3.53;;;;;;;28.27;34.36;98894.75;5051746;28;20056;-80
2022/07/14 09:46:56;;;;;;;7.70;4.00;;;;;;;28.28;34.21;98898.28;5050688;28;20076;-79
2022/07/14 09:49:27;;;;;;;5.30;3.28;;;;;;;28.39;33.57;98901.78;5075731;28;20044;-80
2022/07/14 09:51:57;;;;;;;3.97;3.58;;;;;;;28.51;32.97;98893.66;5044967;28;20421;-81
2022/07/14 09:54:45;;;;;;;5.40;3.65;;;;;;;28.69;32.85;98888.53;5044458;28;20057;-79
2022/07/14 09:57:12;;;;;;;5.30;3.30;;;;;;;28.96;32.47;98890.63;5044378;28;20513;-80
2022/07/14 09:59:50;;;;;;;7.32;3.22;;;;;;;29.28;31.99;98886.97;5043905;28;20040;-80
2022/07/14 10:02:21;;;;;;;7.28;3.58;;;;;;;29.37;31.41;98888.81;5044834;28;20057;-81
2022/07/14 10:04:50;;;;;;;5.85;3.70;;;;;;;28.98;32.45;98883.28;5044703;28;20061;-80
2022/07/14 10:07:18;;;;;;;7.10;3.45;;;;;;;28.80;32.66;98883.06;5045517;28;20060;-80
2022/07/14 10:09:52;;;;;;;5.70;3.17;;;;;;;28.91;32.23;98871.34;5044121;28;20068;-80
2022/07/14 10:12:20;;;;;;;5.18;3.53;;;;;;;28.88;32.26;98852.84;5045832;28;20076;-80
2022/07/14 10:14:52;;;;;;;4.40;3.15;;;;;;;28.79;31.69;98868.78;5044541;28;20054;-82
2022/07/14 10:17:31;;;;;;;3.47;2.90;;;;;;;28.70;31.46;98864.22;5045563;28;20052;-80
2022/07/14 10:19:59;;;;;;;3.13;2.92;;;;;;;28.30;32.62;98870.31;5044379;28;20529;-80
2022/07/14 10:22:29;;;;;;;5.32;3.20;;;;;;;28.19;32.95;98867.72;5044631;28;20083;-81
2022/07/14 10:24:57;;;;;;;8.57;3.30;;;;;;;28.47;32.55;98865.34;5042541;28;20075;-81
2022/07/14 10:27:26;;;;;;;3.90;3.30;;;;;;;28.73;31.98;98863.09;5043394;28;20556;-79
2022/07/14 10:29:56;;;;;;;6.03;3.60;;;;;;;28.98;31.79;98868.00;5044299;28;20048;-81
2022/07/14 10:32:38;;;;;;;5.78;3.05;;;;;;;29.24;31.67;98861.34;5043018;28;20119;-80
2022/07/14 10:35:35;;;;;;;4.47;3.88;;;;;;;29.45;31.22;98861.19;5052043;28;20061;-81
2022/07/14 10:38:21;;;;;;;6.55;3.85;;;;;;;29.29;31.22;98848.31;5053683;28;20052;-79
2022/07/14 10:41:10;;;;;;;3.70;3.35;;;;;;;28.84;31.83;98849.56;5053329;28;20057;-80
2022/07/14 10:44:09;;;;;;;4.72;3.58;;;;;;;28.59;32.62;98846.34;5053438;28;20049;-81
2022/07/14 10:46:49;;;;;;;3.95;3.58;;;;;;;28.32;32.80;98838.81;5060877;28;20057;-81
2022/07/14 10:49:17;;;;;;;6.38;3.67;;;;;;;28.39;33.22;98837.31;5074266;28;20068;-83
2022/07/14 10:51:49;;;;;;;;;;;;;;;27.75;33.97;98843.63;5074011;28;20058;-80
2022/07/14 10:54:20;;;;;;;6.50;3.58;;;;;;;27.51;34.00;98843.84;5073781;28;19953;-81
2022/07/14 10:57:12;;;;;;;10.18;3.55;;;;;;;27.43;34.34;98837.44;5044824;28;20053;-80
2022/07/14 10:59:41;;;;;;;4.03;3.50;;;;;;;27.24;34.86;98841.63;5044084;28;20076;-80
2022/07/14 11:02:12;;;;;;;9.85;3.65;;;;;;;26.95;35.61;98836.78;5051245;28;20143;-79
2022/07/14 11:05:01;;;;;;;7.93;4.05;;;;;;;26.76;35.93;98849.94;5043978;28;20091;-81
2022/07/14 11:07:38;;;;;;;8.13;2.92;;;;;;;26.35;36.13;98856.69;5044540;28;20091;-81
2022/07/14 11:10:19;;;;;;;10.48;3.35;;;;;;;25.77;37.33;98851.28;5044060;28;20529;-80
2022/07/14 11:13:05;;;;;;;3.53;3.10;;;;;;;25.11;38.50;98846.28;5043499;28;20080;-81
2022/07/14 11:15:46;;;;;;;5.60;3.10;;;;;;;24.83;39.80;98841.22;5043347;28;20517;-81
2022/07/14 11:18:24;;;;;;;4.03;2.70;;;;;;;24.48;39.82;98872.13;5043658;28;20053;-79
2022/07/14 11:21:16;;;;;;;11.10;3.30;;;;;;;24.19;40.54;98886.59;5042574;28;20044;-79
2022/07/14 11:23:50;;;;;;;6.95;3.08;;;;;;;23.98;41.94;98889.72;5042549;28;20528;-79
2022/07/14 11:26:32;;;;;;;4.82;3.17;;;;;;;23.63;42.31;98862.72;5075788;28;20140;-79
2022/07/14 11:29:02;;;;;;;4.03;2.35;;;;;;;23.60;43.01;98876.28;5043608;28;20143;-81
2022/07/14 11:32:02;;;;;;;3.13;2.85;;;;;;;23.62;42.73;98903.69;5041239;28;20503;-79
2022/07/14 11:38:01;;;;;;;4.28;2.88;;;;;;;23.59;42.99;98898.53;5045816;28;20047;-78
2022/07/14 11:40:47;;;;;;;3.00;2.70;;;;;;;23.52;43.55;98890.94;5056060;28;20140;-79
2022/07/14 11:43:30;;;;;;;4.65;2.85;;;;;;;23.55;43.60;98873.03;5045997;28;20466;-80
2022/07/14 11:45:58;;;;;;;4.35;2.45;;;;;;;23.60;43.52;98870.94;5042937;28;20506;-80
2022/07/14 11:48:32;;;;;;;5.30;2.90;;;;;;;23.55;44.01;98873.88;5041848;28;20132;-81
2022/07/14 11:51:09;;;;;;;6.70;3.10;;;;;;;23.42;44.23;98857.84;5043446;28;20048;-79
2022/07/14 11:53:38;;;;;;;6.00;3.03;;;;;;;23.33;45.10;98838.97;5043046;28;20077;-80
2022/07/14 11:56:07;;;;;;;3.22;2.92;;;;;;;23.27;46.28;98832.22;5041840;28;20057;-81
2022/07/14 11:58:39;;;;;;;6.20;3.30;;;;;;;23.40;46.43;98843.78;5041491;28;20076;-82